createdAt,value
2022-08-05T00:00:17.357Z,60.64
2022-08-05T00:02:50.557Z,61.14
2022-08-05T00:06:02.663Z,61.31
2022-08-05T00:08:05.150Z,61.55
2022-08-05T00:10:46.335Z,62.09
2022-08-05T00:13:18.684Z,63.26
2022-08-05T00:15:55.271Z,63.58
2022-08-05T00:18:24.929Z,63.91
2022-08-05T00:20:51.796Z,63.85
2022-08-05T00:23:44.582Z,64.47
2022-08-05T00:26:07.157Z,64.77
2022-08-05T00:28:34.776Z,65.84
2022-08-05T00:31:04.369Z,65.61
2022-08-05T00:34:54.739Z,66.52
2022-08-05T00:37:11.568Z,66.37
2022-08-05T00:39:05.526Z,66.53
2022-08-05T00:41:51.639Z,66.84
2022-08-05T00:44:23.317Z,66.80
2022-08-05T00:47:03.973Z,67.45
2022-08-05T00:49:51.033Z,69.52
2022-08-05T00:52:28.396Z,68.60
2022-08-05T00:54:55.992Z,68.42
2022-08-05T00:57:25.136Z,68.55
2022-08-05T00:59:52.174Z,68.17
2022-08-05T01:02:18.875Z,68.67
2022-08-05T01:04:45.617Z,68.51
2022-08-05T01:07:31.589Z,68.82
2022-08-05T01:09:58.866Z,68.91
2022-08-05T01:12:29.808Z,68.71
2022-08-05T01:15:35.803Z,68.97
2022-08-05T01:18:03.493Z,69.57
2022-08-05T01:21:02.652Z,69.93
2022-08-05T01:23:35.580Z,70.69
2022-08-05T01:26:05.133Z,70.69
2022-08-05T01:28:53.912Z,70.73
2022-08-05T01:31:26.911Z,71.41
2022-08-05T01:34:01.824Z,71.95
2022-08-05T01:36:32.949Z,71.47
2022-08-05T01:39:01.120Z,72.28
2022-08-05T01:41:31.799Z,72.52
2022-08-05T01:44:00.920Z,72.70
2022-08-05T01:46:42.904Z,72.86
2022-08-05T01:49:23.631Z,73.05
2022-08-05T01:51:54.955Z,73.22
2022-08-05T01:54:25.695Z,73.81
2022-08-05T01:58:10.465Z,74.39
2022-08-05T01:59:47.381Z,74.42
2022-08-05T02:02:16.016Z,75.54
2022-08-05T02:04:49.551Z,75.54
2022-08-05T02:07:22.071Z,75.31
2022-08-05T02:09:50.394Z,75.39
2022-08-05T02:12:20.737Z,75.58
2022-08-05T02:14:57.800Z,75.98
2022-08-05T02:18:33.038Z,75.62
2022-08-05T02:20:23.264Z,76.37
2022-08-05T02:23:01.731Z,75.85
2022-08-05T02:25:49.079Z,75.92
2022-08-05T02:28:28.328Z,76.23
2022-08-05T02:31:01.085Z,76.08
2022-08-05T02:33:35.944Z,76.46
2022-08-05T02:36:09.461Z,76.52
2022-08-05T02:38:37.538Z,76.93
2022-08-05T02:41:14.708Z,77.75
2022-08-05T02:44:06.229Z,77.34
2022-08-05T02:46:33.404Z,77.18
2022-08-05T02:49:01.874Z,77.98
2022-08-05T02:52:03.986Z,77.74
2022-08-05T02:54:35.844Z,77.87
2022-08-05T02:57:10.404Z,78.13
2022-08-05T02:59:55.358Z,77.96
2022-08-05T03:02:29.026Z,77.71
2022-08-05T03:04:58.048Z,78.90
2022-08-05T03:07:59.413Z,78.78
2022-08-05T03:10:22.033Z,77.81
2022-08-05T03:12:52.954Z,78.23
2022-08-05T03:15:20.548Z,78.31
2022-08-05T03:17:47.281Z,77.63
2022-08-05T03:20:14.003Z,77.33
2022-08-05T03:22:46.919Z,77.46
2022-08-05T03:25:34.055Z,76.77
2022-08-05T03:28:08.470Z,76.57
2022-08-05T03:30:38.342Z,76.33
2022-08-05T03:33:08.318Z,76.33
2022-08-05T03:35:41.044Z,75.92
2022-08-05T03:38:11.463Z,76.31
2022-08-05T03:40:47.194Z,76.81
2022-08-05T03:43:59.004Z,76.49
2022-08-05T03:46:02.831Z,75.68
2022-08-05T03:48:35.671Z,75.37
2022-08-05T03:52:35.099Z,75.11
2022-08-05T03:55:54.744Z,74.97
2022-08-05T03:56:52.721Z,74.93
2022-08-05T03:59:46.830Z,74.56
2022-08-05T04:02:17.436Z,74.66
2022-08-05T04:05:05.674Z,74.39
2022-08-05T04:07:57.511Z,73.93
2022-08-05T04:10:27.666Z,74.16
2022-08-05T04:12:55.598Z,73.86
2022-08-05T04:15:26.150Z,73.09
2022-08-05T04:17:57.397Z,73.70
2022-08-05T04:20:26.746Z,71.57
2022-08-05T04:22:53.372Z,68.12
2022-08-05T04:25:20.281Z,65.98
2022-08-05T04:28:11.355Z,61.72
2022-08-05T04:30:39.354Z,62.24
2022-08-05T04:33:06.332Z,54.29
2022-08-05T04:36:11.290Z,53.21
2022-08-05T04:38:20.982Z,50.62
2022-08-05T04:40:50.749Z,51.60
2022-08-05T04:43:17.775Z,50.33
2022-08-05T04:45:55.101Z,47.74
2022-08-05T04:48:27.378Z,46.51
2022-08-05T04:51:01.885Z,45.92
2022-08-05T04:53:33.594Z,45.54
2022-08-05T04:56:33.468Z,45.77
2022-08-05T04:58:49.423Z,44.20
2022-08-05T05:01:33.769Z,43.55
2022-08-05T05:04:02.955Z,40.74
2022-08-05T05:06:38.725Z,35.27
2022-08-05T05:09:07.830Z,34.28
2022-08-05T05:11:54.042Z,34.07
2022-08-05T05:14:28.013Z,31.96
2022-08-05T05:17:00.168Z,30.02
2022-08-05T05:19:36.554Z,28.98
2022-08-05T05:22:24.137Z,27.13
2022-08-05T05:24:59.452Z,26.36
2022-08-05T05:27:45.221Z,25.93
2022-08-05T05:30:31.143Z,26.83
2022-08-05T05:33:03.802Z,28.55
2022-08-05T05:35:42.586Z,29.22
2022-08-05T05:38:13.583Z,26.58
2022-08-05T05:40:50.029Z,25.44
2022-08-05T05:43:27.863Z,22.82
2022-08-05T05:46:10.673Z,24.05
2022-08-05T05:48:37.531Z,23.27
2022-08-05T05:51:14.862Z,21.76
2022-08-05T05:53:54.110Z,24.81
2022-08-05T05:56:33.004Z,23.01
2022-08-05T05:59:08.044Z,21.94
2022-08-05T06:01:40.583Z,23.23
2022-08-05T06:04:24.160Z,21.70
2022-08-05T06:06:50.817Z,21.45
2022-08-05T06:09:25.655Z,20.53
2022-08-05T06:11:59.184Z,21.94
2022-08-05T06:14:29.554Z,21.21
2022-08-05T06:16:56.809Z,20.55
2022-08-05T06:19:26.239Z,20.46
2022-08-05T06:22:00.969Z,21.77
2022-08-05T06:24:27.601Z,21.23
2022-08-05T06:26:54.210Z,21.26
2022-08-05T06:29:43.017Z,19.68
2022-08-05T06:32:25.343Z,19.61
2022-08-05T06:34:58.369Z,21.05
2022-08-05T06:37:56.635Z,20.30
2022-08-05T06:40:14.020Z,20.80
2022-08-05T06:42:45.768Z,20.04
2022-08-05T06:45:20.754Z,20.08
2022-08-05T06:48:44.270Z,19.35
2022-08-05T06:50:35.306Z,17.79
2022-08-05T06:53:11.236Z,18.81
2022-08-05T06:55:38.439Z,17.19
2022-08-05T06:58:29.873Z,17.39
2022-08-05T07:00:58.544Z,16.61
2022-08-05T07:03:32.409Z,17.69
2022-08-05T07:06:06.137Z,17.78
2022-08-05T07:08:41.989Z,18.74
2022-08-05T07:11:15.550Z,17.04
2022-08-05T07:14:01.750Z,17.81
2022-08-05T07:17:56.413Z,16.96
2022-08-05T07:22:27.654Z,16.79
2022-08-05T07:24:56.504Z,16.58
2022-08-05T07:27:23.311Z,16.57
2022-08-05T07:30:24.007Z,18.38
2022-08-05T07:32:43.620Z,16.23
2022-08-05T07:35:55.926Z,18.08
2022-08-05T07:38:00.900Z,17.11
2022-08-05T07:40:32.962Z,17.34
2022-08-05T07:43:04.640Z,17.34
2022-08-05T07:45:58.156Z,17.21
2022-08-05T07:49:03.026Z,17.16
2022-08-05T07:51:08.567Z,17.80
2022-08-05T07:53:51.611Z,18.55
2022-08-05T07:56:38.993Z,18.14
2022-08-05T07:59:05.254Z,17.11
2022-08-05T08:01:35.481Z,17.49
2022-08-05T08:04:34.347Z,16.70
2022-08-05T08:07:07.218Z,16.22
2022-08-05T08:09:34.394Z,17.36
2022-08-05T08:12:09.021Z,17.61
2022-08-05T08:14:46.812Z,16.47
2022-08-05T08:17:21.376Z,17.46
2022-08-05T08:20:21.081Z,16.65
2022-08-05T08:22:35.526Z,16.86
2022-08-05T08:25:02.871Z,17.14
2022-08-05T08:27:39.980Z,18.22
2022-08-05T08:30:19.086Z,18.07
2022-08-05T08:32:56.939Z,18.51
2022-08-05T08:35:26.586Z,18.31
2022-08-05T08:37:54.413Z,16.83
2022-08-05T08:40:23.858Z,17.40
2022-08-05T08:42:52.443Z,19.99
2022-08-05T08:45:26.524Z,18.76
2022-08-05T08:48:10.697Z,18.95
2022-08-05T08:51:03.722Z,17.72
2022-08-05T08:53:40.223Z,18.30
2022-08-05T08:56:11.135Z,18.45
2022-08-05T08:58:44.636Z,19.03
2022-08-05T09:01:18.883Z,19.16
2022-08-05T09:03:55.459Z,19.06
2022-08-05T09:06:29.844Z,21.05
2022-08-05T09:09:00.184Z,19.97
2022-08-05T09:11:50.748Z,18.75
2022-08-05T09:14:56.618Z,20.52
2022-08-05T09:17:03.520Z,20.75
2022-08-05T09:19:36.799Z,20.71
2022-08-05T09:22:32.080Z,21.03
2022-08-05T09:25:02.248Z,19.97
2022-08-05T09:28:04.025Z,19.87
2022-08-05T09:30:34.426Z,18.35
2022-08-05T09:33:04.962Z,19.15
2022-08-05T09:35:31.717Z,20.11
2022-08-05T09:38:12.237Z,20.75
2022-08-05T09:40:52.212Z,21.62
2022-08-05T09:43:41.566Z,21.45
2022-08-05T09:46:33.266Z,19.72
2022-08-05T09:49:18.953Z,19.54
2022-08-05T09:51:48.806Z,20.54
2022-08-05T09:54:21.404Z,19.75
2022-08-05T09:56:57.599Z,20.89
2022-08-05T09:59:28.090Z,20.34
2022-08-05T10:01:57.724Z,21.71
2022-08-05T10:04:38.538Z,20.27
2022-08-05T10:07:20.051Z,20.30
2022-08-05T10:10:15.324Z,20.90
2022-08-05T10:12:50.154Z,21.23
2022-08-05T10:15:21.828Z,20.82
2022-08-05T10:18:16.946Z,20.67
2022-08-05T10:20:51.271Z,20.55
2022-08-05T10:23:55.479Z,19.96
2022-08-05T10:26:14.417Z,19.93
2022-08-05T10:28:44.933Z,19.93
2022-08-05T10:32:54.508Z,20.15
2022-08-05T10:34:08.023Z,20.64
2022-08-05T10:36:40.558Z,20.21
2022-08-05T10:39:24.814Z,19.52
2022-08-05T10:42:33.924Z,19.96
2022-08-05T10:45:02.065Z,21.82
2022-08-05T10:48:27.600Z,19.71
2022-08-05T10:51:00.536Z,19.31
2022-08-05T10:53:45.307Z,18.78
2022-08-05T10:56:25.655Z,19.37
2022-08-05T10:58:55.823Z,19.12
2022-08-05T11:01:55.601Z,20.21
2022-08-05T11:04:26.303Z,19.11
2022-08-05T11:07:05.892Z,19.06
2022-08-05T11:09:46.684Z,18.63
2022-08-05T11:12:41.265Z,20.28
2022-08-05T11:16:01.308Z,18.68
2022-08-05T11:18:30.031Z,18.75
2022-08-05T11:20:59.440Z,19.34
2022-08-05T11:24:03.181Z,18.56
2022-08-05T11:26:29.154Z,19.46
2022-08-05T11:29:12.076Z,19.58
2022-08-05T11:31:56.929Z,19.27
2022-08-05T11:34:51.303Z,19.98
2022-08-05T11:38:36.741Z,19.69
2022-08-05T11:41:34.637Z,20.41
2022-08-05T11:44:07.606Z,18.50
2022-08-05T11:47:10.297Z,18.68
2022-08-05T11:49:26.358Z,19.99
2022-08-05T11:51:53.568Z,19.42
2022-08-05T11:54:34.533Z,18.96
2022-08-05T11:57:08.607Z,18.53
2022-08-05T11:59:51.137Z,18.55
2022-08-05T12:02:24.475Z,18.96
2022-08-05T12:04:59.855Z,19.85
2022-08-05T12:08:09.296Z,19.07
2022-08-05T12:10:23.002Z,18.83
2022-08-05T12:12:59.202Z,19.85
2022-08-05T12:15:35.775Z,18.05
2022-08-05T12:18:10.659Z,19.23
2022-08-05T12:20:38.878Z,19.12
2022-08-05T12:23:12.546Z,20.45
2022-08-05T12:25:56.778Z,19.62
2022-08-05T12:28:37.878Z,18.90
2022-08-05T12:31:05.259Z,20.96
2022-08-05T12:33:36.294Z,19.09
2022-08-05T12:36:07.891Z,19.15
2022-08-05T12:38:39.746Z,17.74
2022-08-05T12:41:16.200Z,18.06
2022-08-05T12:43:55.708Z,18.11
2022-08-05T12:46:31.494Z,19.27
2022-08-05T12:49:13.628Z,19.68
2022-08-05T12:52:12.789Z,18.15
2022-08-05T12:54:49.767Z,18.29
2022-08-05T12:57:17.274Z,18.22
2022-08-05T13:01:56.745Z,18.46
2022-08-05T13:02:36.602Z,18.53
2022-08-05T13:05:06.650Z,18.58
2022-08-05T13:07:59.252Z,18.54
2022-08-05T13:10:20.451Z,17.31
2022-08-05T13:12:51.233Z,18.64
2022-08-05T13:15:35.980Z,17.94
2022-08-05T13:18:19.426Z,17.68
2022-08-05T13:20:49.385Z,17.71
2022-08-05T13:23:22.168Z,16.46
2022-08-05T13:25:52.543Z,17.63
2022-08-05T13:28:27.239Z,17.11
2022-08-05T13:30:53.921Z,16.61
2022-08-05T13:34:24.127Z,17.04
2022-08-05T13:36:10.401Z,17.57
2022-08-05T13:38:38.490Z,18.47
2022-08-05T13:41:09.492Z,18.72
2022-08-05T13:43:45.618Z,18.08
2022-08-05T13:46:50.744Z,17.70
2022-08-05T13:49:13.633Z,18.52
2022-08-05T13:51:46.189Z,17.97
2022-08-05T13:54:16.013Z,17.46
2022-08-05T13:56:51.158Z,18.21
2022-08-05T13:59:30.697Z,18.54
2022-08-05T14:02:00.292Z,18.23
2022-08-05T14:04:51.827Z,18.68
2022-08-05T14:08:00.162Z,17.49
2022-08-05T14:10:19.027Z,18.39
2022-08-05T14:12:54.735Z,18.18
2022-08-05T14:16:04.343Z,18.55
2022-08-05T14:18:14.645Z,17.75
2022-08-05T14:20:47.343Z,19.60
2022-08-05T14:23:25.004Z,18.15
2022-08-05T14:25:58.967Z,18.94
2022-08-05T14:28:28.135Z,19.17
2022-08-05T14:30:55.904Z,18.23
2022-08-05T14:33:23.701Z,17.65
2022-08-05T14:35:52.070Z,18.42
2022-08-05T14:38:27.761Z,18.04
2022-08-05T14:41:00.004Z,17.66
2022-08-05T14:44:02.552Z,18.13
2022-08-05T14:46:13.475Z,18.52
2022-08-05T14:48:40.157Z,18.27
2022-08-05T14:51:06.844Z,18.46
2022-08-05T14:53:44.353Z,18.35
2022-08-05T14:56:11.860Z,18.27
2022-08-05T14:58:39.868Z,18.78
2022-08-05T15:01:15.988Z,18.45
2022-08-05T15:03:43.655Z,18.83
2022-08-05T15:06:15.421Z,19.13
2022-08-05T15:09:01.123Z,18.53
2022-08-05T15:11:53.254Z,18.05
2022-08-05T15:14:34.301Z,17.96
2022-08-05T15:17:05.438Z,18.51
2022-08-05T15:19:41.244Z,19.56
2022-08-05T15:22:16.081Z,19.90
2022-08-05T15:24:44.180Z,18.96
2022-08-05T15:27:11.467Z,19.84
2022-08-05T15:29:42.100Z,19.82
2022-08-05T15:32:09.000Z,20.13
2022-08-05T15:34:35.612Z,19.56
2022-08-05T15:37:06.225Z,19.79
2022-08-05T15:41:02.518Z,19.64
2022-08-05T15:42:55.681Z,20.01
2022-08-05T15:45:10.499Z,19.87
2022-08-05T15:47:41.142Z,20.32
2022-08-05T15:50:09.032Z,20.84
2022-08-05T15:52:53.460Z,22.40
2022-08-05T15:55:24.867Z,20.36
2022-08-05T15:58:09.597Z,20.46
2022-08-05T16:00:57.145Z,21.50
2022-08-05T16:03:30.357Z,21.14
2022-08-05T16:05:59.536Z,20.71
2022-08-05T16:08:30.421Z,22.27
2022-08-05T16:10:58.216Z,22.12
2022-08-05T16:13:32.030Z,22.08
2022-08-05T16:16:01.461Z,21.30
2022-08-05T16:18:30.753Z,21.11
2022-08-05T16:20:57.563Z,20.76
2022-08-05T16:23:24.256Z,21.31
2022-08-05T16:25:55.787Z,21.62
2022-08-05T16:28:24.197Z,23.73
2022-08-05T16:30:52.129Z,22.60
2022-08-05T16:33:19.563Z,23.10
2022-08-05T16:35:49.878Z,23.65
2022-08-05T16:38:25.683Z,22.87
2022-08-05T16:41:00.928Z,24.42
2022-08-05T16:43:33.399Z,23.53
2022-08-05T16:46:04.311Z,23.47
2022-08-05T16:48:35.814Z,23.82
2022-08-05T16:51:08.725Z,23.99
2022-08-05T16:54:02.488Z,24.14
2022-08-05T16:56:25.773Z,24.45
2022-08-05T16:58:52.569Z,25.28
2022-08-05T17:01:20.237Z,25.31
2022-08-05T17:03:47.485Z,26.21
2022-08-05T17:06:16.407Z,26.96
2022-08-05T17:08:53.000Z,26.77
2022-08-05T17:11:25.410Z,28.25
2022-08-05T17:14:00.558Z,27.98
2022-08-05T17:16:37.887Z,27.96
2022-08-05T17:19:07.759Z,29.36
2022-08-05T17:21:37.798Z,29.28
2022-08-05T17:24:27.978Z,30.18
2022-08-05T17:26:58.365Z,29.99
2022-08-05T17:29:33.269Z,30.85
2022-08-05T17:32:06.771Z,30.87
2022-08-05T17:34:35.169Z,31.50
2022-08-05T17:37:01.988Z,33.99
2022-08-05T17:39:34.670Z,33.78
2022-08-05T17:42:18.831Z,33.80
2022-08-05T17:44:50.048Z,34.83
2022-08-05T17:47:22.919Z,35.72
2022-08-05T17:50:00.429Z,37.06
2022-08-05T17:52:32.691Z,38.79
2022-08-05T17:55:00.716Z,39.26
2022-08-05T17:57:29.802Z,40.85
2022-08-05T18:00:03.686Z,42.57
2022-08-05T18:02:34.357Z,46.02
2022-08-05T18:05:06.325Z,46.45
2022-08-05T18:07:41.210Z,46.95
2022-08-05T18:10:10.944Z,47.60
2022-08-05T18:12:38.590Z,48.30
2022-08-05T18:15:06.820Z,48.37
2022-08-05T18:18:00.750Z,49.39
2022-08-05T18:20:29.267Z,49.72
2022-08-05T18:23:00.571Z,51.15
2022-08-05T18:25:35.948Z,50.76
2022-08-05T18:28:05.294Z,51.49
2022-08-05T18:30:33.180Z,51.87
2022-08-05T18:33:01.290Z,51.10
2022-08-05T18:35:59.952Z,52.91
2022-08-05T18:38:19.617Z,53.49
2022-08-05T18:41:57.176Z,54.72
2022-08-05T18:43:42.960Z,53.22
2022-08-05T18:46:15.992Z,54.14
2022-08-05T18:48:51.534Z,53.72
2022-08-05T18:52:05.558Z,54.15
2022-08-05T18:54:28.578Z,54.04
2022-08-05T18:57:00.996Z,54.40
2022-08-05T18:59:43.494Z,54.45
2022-08-05T19:02:28.267Z,54.21
2022-08-05T19:05:02.248Z,55.35
2022-08-05T19:07:47.772Z,56.03
2022-08-05T19:10:14.990Z,55.71
2022-08-05T19:12:43.318Z,56.82
2022-08-05T19:15:56.639Z,56.49
2022-08-05T19:18:09.625Z,57.23
2022-08-05T19:20:41.764Z,58.06
2022-08-05T19:24:04.350Z,61.13
2022-08-05T19:26:01.848Z,59.35
2022-08-05T19:28:31.060Z,61.27
2022-08-05T19:31:00.924Z,57.19
2022-08-05T19:33:35.391Z,56.44
2022-08-05T19:36:09.068Z,56.35
2022-08-05T19:38:36.278Z,56.52
2022-08-05T19:41:09.030Z,55.32
2022-08-05T19:44:06.628Z,58.24
2022-08-05T19:46:29.012Z,55.96
2022-08-05T19:49:03.046Z,54.85
2022-08-05T19:51:59.836Z,54.64
2022-08-05T19:54:25.628Z,53.91
2022-08-05T19:56:56.258Z,55.06
2022-08-05T20:00:00.713Z,54.50
2022-08-05T20:02:09.852Z,54.87
2022-08-05T20:04:37.758Z,51.59
2022-08-05T20:07:10.419Z,53.49
2022-08-05T20:09:53.878Z,50.64
2022-08-05T20:12:22.401Z,50.39
2022-08-05T20:14:52.111Z,51.13
2022-08-05T20:17:23.417Z,51.13
2022-08-05T20:19:56.780Z,50.03
2022-08-05T20:22:26.793Z,49.84
2022-08-05T20:24:55.364Z,50.96
2022-08-05T20:27:27.030Z,52.35
2022-08-05T20:29:58.575Z,51.08
2022-08-05T20:32:26.623Z,51.66
2022-08-05T20:34:53.635Z,52.07
2022-08-05T20:38:04.442Z,52.53
2022-08-05T20:40:07.770Z,54.67
2022-08-05T20:42:34.632Z,54.19
2022-08-05T20:45:02.650Z,54.50
2022-08-05T20:47:31.093Z,54.75
2022-08-05T20:49:59.906Z,55.51
2022-08-05T20:52:28.793Z,56.07
2022-08-05T20:54:59.558Z,56.28
2022-08-05T20:57:44.423Z,56.90
2022-08-05T21:00:40.030Z,57.36
2022-08-05T21:03:06.318Z,56.96
2022-08-05T21:05:47.665Z,57.53
2022-08-05T21:08:21.134Z,56.72
2022-08-05T21:10:53.679Z,57.27
2022-08-05T21:13:26.452Z,57.46
2022-08-05T21:16:07.207Z,57.96
2022-08-05T21:18:34.346Z,58.00
2022-08-05T21:21:02.497Z,58.43
2022-08-05T21:23:29.146Z,58.49
2022-08-05T21:26:04.272Z,59.16
2022-08-05T21:28:47.965Z,59.23
2022-08-05T21:31:18.231Z,59.63
2022-08-05T21:33:47.800Z,60.49
2022-08-05T21:36:19.045Z,60.96
2022-08-05T21:38:54.607Z,60.96
2022-08-05T21:41:21.489Z,62.60
2022-08-05T21:44:01.323Z,62.11
2022-08-05T21:46:31.044Z,62.37
2022-08-05T21:48:59.869Z,62.90
2022-08-05T21:52:22.580Z,63.74
2022-08-05T21:54:13.314Z,62.89
2022-08-05T21:56:44.208Z,63.59
2022-08-05T21:59:23.967Z,63.69
2022-08-05T22:01:54.437Z,63.76
2022-08-05T22:04:25.436Z,64.79
2022-08-05T22:06:52.888Z,64.88
2022-08-05T22:09:21.471Z,65.71
2022-08-05T22:11:48.709Z,65.86
2022-08-05T22:14:33.837Z,66.26
2022-08-05T22:17:06.460Z,67.14
2022-08-05T22:19:57.247Z,67.44
2022-08-05T22:22:27.408Z,67.85
2022-08-05T22:25:18.136Z,68.00
2022-08-05T22:28:10.926Z,68.02
2022-08-05T22:30:44.277Z,68.29
2022-08-05T22:33:58.636Z,69.64
2022-08-05T22:36:14.490Z,68.79
2022-08-05T22:38:42.638Z,71.23
2022-08-05T22:41:10.273Z,70.13
2022-08-05T22:43:37.993Z,70.03
2022-08-05T22:46:11.969Z,70.03
2022-08-05T22:48:40.058Z,70.47
2022-08-05T22:51:07.693Z,71.19
2022-08-05T22:53:35.807Z,70.99
2022-08-05T22:56:02.753Z,71.74
2022-08-05T22:58:29.375Z,71.30
2022-08-05T23:00:57.003Z,71.92
2022-08-05T23:03:58.352Z,71.29
2022-08-05T23:06:10.692Z,71.02
2022-08-05T23:08:37.292Z,70.62
2022-08-05T23:11:05.983Z,71.58
2022-08-05T23:13:35.336Z,71.68
2022-08-05T23:16:03.898Z,72.07
2022-08-05T23:18:30.590Z,71.75
2022-08-05T23:20:58.972Z,71.44
2022-08-05T23:23:26.076Z,74.24
2022-08-05T23:25:56.586Z,72.83
2022-08-05T23:28:29.147Z,73.11
2022-08-05T23:31:16.099Z,73.18
2022-08-05T23:34:04.821Z,74.01
2022-08-05T23:36:38.320Z,73.77
2022-08-05T23:39:05.677Z,73.05
2022-08-05T23:41:34.376Z,73.47
2022-08-05T23:44:08.637Z,69.67
2022-08-05T23:46:37.505Z,71.82
2022-08-05T23:49:16.972Z,69.89
2022-08-05T23:52:07.706Z,69.19
2022-08-05T23:54:38.286Z,69.99
2022-08-05T23:57:06.665Z,70.40
